createdAt,value
2019-03-26T00:02:25.646Z,32.25
2019-03-26T00:07:31.427Z,33.00
2019-03-26T00:12:40.592Z,31.87
2019-03-26T00:17:48.426Z,29.75
2019-03-26T00:22:57.000Z,34.13
2019-03-26T00:28:01.335Z,30.00
2019-03-26T00:33:09.977Z,32.50
2019-03-26T00:38:19.184Z,28.75
2019-03-26T00:43:25.238Z,32.63
2019-03-26T00:48:31.295Z,35.00
2019-03-26T00:53:37.516Z,32.50
2019-03-26T00:58:41.852Z,33.00
2019-03-26T01:03:46.183Z,35.00
2019-03-26T01:08:52.226Z,33.00
2019-03-26T01:13:59.255Z,34.43
2019-03-26T01:19:04.528Z,33.00
2019-03-26T01:24:08.062Z,35.00
2019-03-26T01:29:14.700Z,33.63
2019-03-26T01:34:20.641Z,35.25
2019-03-26T01:39:29.322Z,34.88
2019-03-26T01:44:33.141Z,33.00
2019-03-26T01:49:37.455Z,33.00
2019-03-26T01:54:45.187Z,33.14
2019-03-26T01:59:54.519Z,32.92
2019-03-26T02:05:04.515Z,36.38
2019-03-26T02:10:08.165Z,36.00
2019-03-26T02:15:14.040Z,33.75
2019-03-26T02:20:18.555Z,32.75
2019-03-26T02:25:22.767Z,33.00
2019-03-26T02:30:31.318Z,33.75
2019-03-26T02:35:40.423Z,36.88
2019-03-26T02:40:44.687Z,36.00
2019-03-26T02:45:48.788Z,33.50
2019-03-26T02:50:57.431Z,35.50
2019-03-26T02:56:02.240Z,36.00
2019-03-26T03:01:10.463Z,36.00
2019-03-26T03:06:19.371Z,33.63
2019-03-26T03:11:28.416Z,34.00
2019-03-26T03:16:37.471Z,35.50
2019-03-26T03:21:43.403Z,33.00
2019-03-26T03:26:51.186Z,33.75
2019-03-26T03:31:56.421Z,34.00
2019-03-26T03:37:02.831Z,34.00
2019-03-26T03:42:10.564Z,32.00
2019-03-26T03:47:18.679Z,32.13
2019-03-26T03:52:23.953Z,34.50
2019-03-26T03:57:30.882Z,30.37
2019-03-26T04:02:38.887Z,31.50
2019-03-26T04:07:44.821Z,34.13
2019-03-26T04:12:49.945Z,33.00
2019-03-26T04:17:55.978Z,32.25
2019-03-26T04:23:01.866Z,32.50
2019-03-26T04:28:09.533Z,33.14
2019-03-26T04:33:19.514Z,31.91
2019-03-26T04:38:24.428Z,33.00
2019-03-26T04:43:33.046Z,33.50
2019-03-26T04:48:41.551Z,32.00
2019-03-26T04:53:48.342Z,32.71
2019-03-26T04:58:55.978Z,31.50
2019-03-26T05:04:05.420Z,33.45
2019-03-26T05:09:14.020Z,33.82
2019-03-26T05:14:23.004Z,36.13
2019-03-26T05:19:27.958Z,35.25
2019-03-26T05:24:36.464Z,38.00
2019-03-26T05:29:42.451Z,32.00
2019-03-26T05:34:47.422Z,33.00
2019-03-26T05:39:54.132Z,30.25
2019-03-26T05:45:04.806Z,32.00
2019-03-26T05:50:09.398Z,32.25
2019-03-26T05:55:13.365Z,31.50
2019-03-26T06:00:22.165Z,30.00
2019-03-26T06:05:26.941Z,32.00
2019-03-26T06:10:30.575Z,28.33
2019-03-26T06:15:37.901Z,34.88
2019-03-26T06:20:42.879Z,39.75
2019-03-26T06:25:51.460Z,35.63
2019-03-26T06:30:55.633Z,33.00
2019-03-26T06:35:59.727Z,33.50
2019-03-26T06:41:08.307Z,29.87
2019-03-26T06:46:13.359Z,33.00
2019-03-26T06:51:17.623Z,41.50
2019-03-26T06:56:26.149Z,31.87
2019-03-26T07:01:34.071Z,30.88
2019-03-26T07:06:41.606Z,30.75
2019-03-26T07:11:46.794Z,35.00
2019-03-26T07:16:52.721Z,32.50
2019-03-26T07:22:01.914Z,35.25
2019-03-26T07:27:07.933Z,32.25
2019-03-26T07:32:15.672Z,33.00
2019-03-26T07:37:20.715Z,37.50
2019-03-26T07:42:29.202Z,34.75
2019-03-26T07:47:35.131Z,24.63
2019-03-26T07:52:44.395Z,33.17
2019-03-26T07:57:50.632Z,30.25
2019-03-26T08:02:59.647Z,24.12
2019-03-26T08:08:05.494Z,24.50
2019-03-26T08:13:12.236Z,21.75
2019-03-26T08:18:17.925Z,18.43
2019-03-26T08:23:23.595Z,20.37
2019-03-26T08:28:32.790Z,25.88
2019-03-26T08:33:37.640Z,22.50
2019-03-26T08:38:41.863Z,19.60
2019-03-26T08:43:46.019Z,17.50
2019-03-26T08:48:54.403Z,11.86
2019-03-26T08:54:03.114Z,12.00
2019-03-26T08:59:09.879Z,11.43
2019-03-26T09:04:13.934Z,12.40
2019-03-26T09:09:18.267Z,13.00
2019-03-26T09:14:24.952Z,10.71
2019-03-26T09:19:29.167Z,8.60
2019-03-26T09:24:36.578Z,6.83
2019-03-26T09:29:41.463Z,10.71
2019-03-26T09:34:48.300Z,12.71
2019-03-26T09:39:55.031Z,12.00
2019-03-26T09:45:00.368Z,13.43
2019-03-26T09:50:06.952Z,15.00
2019-03-26T09:55:13.051Z,12.71
2019-03-26T10:00:19.642Z,14.29
2019-03-26T10:05:23.598Z,17.00
2019-03-26T10:10:29.371Z,13.86
2019-03-26T10:15:35.085Z,11.00
2019-03-26T10:20:40.976Z,17.00
2019-03-26T10:25:45.935Z,20.00
2019-03-26T10:30:50.140Z,23.25
2019-03-26T10:35:53.594Z,24.00
2019-03-26T10:40:57.711Z,27.50
2019-03-26T10:46:02.143Z,24.00
2019-03-26T10:51:07.783Z,29.00
2019-03-26T10:56:14.509Z,19.62
2019-03-26T11:01:20.266Z,18.14
2019-03-26T11:06:26.816Z,18.62
2019-03-26T11:11:32.892Z,17.00
2019-03-26T11:16:36.994Z,16.33
2019-03-26T11:21:40.440Z,15.50
2019-03-26T11:26:46.402Z,13.71
2019-03-26T11:31:52.319Z,18.29
2019-03-26T11:37:00.002Z,23.25
2019-03-26T11:42:08.341Z,18.00
2019-03-26T11:47:17.568Z,22.00
2019-03-26T11:52:23.538Z,17.86
2019-03-26T11:57:28.619Z,19.00
2019-03-26T12:02:34.578Z,16.86
2019-03-26T12:07:42.818Z,16.14
2019-03-26T12:12:45.526Z,15.50
2019-03-26T12:17:51.803Z,15.29
2019-03-26T12:22:54.660Z,15.00
2019-03-26T12:27:57.514Z,33.33
2019-03-26T12:33:02.058Z,15.17
2019-03-26T12:38:06.943Z,18.00
2019-03-26T12:43:13.383Z,14.00
2019-03-26T12:48:20.120Z,15.29
2019-03-26T12:53:26.823Z,14.00
2019-03-26T12:58:36.060Z,11.86
2019-03-26T13:03:37.871Z,11.00
2019-03-26T13:08:41.334Z,18.25
2019-03-26T13:13:47.423Z,14.71
2019-03-26T13:18:51.799Z,11.50
2019-03-26T13:23:56.937Z,13.83
2019-03-26T13:29:02.953Z,11.00
2019-03-26T13:34:08.267Z,9.50
2019-03-26T13:39:12.502Z,11.00
2019-03-26T13:44:18.438Z,12.43
2019-03-26T13:49:21.876Z,12.33
2019-03-26T13:54:30.492Z,11.43
2019-03-26T13:59:39.788Z,14.64
2019-03-26T14:04:44.954Z,10.71
2019-03-26T14:09:49.387Z,16.00
2019-03-26T14:14:55.991Z,11.00
2019-03-26T14:19:59.340Z,9.00
2019-03-26T14:25:05.388Z,10.14
2019-03-26T14:30:12.374Z,21.86
2019-03-26T14:35:18.374Z,10.67
2019-03-26T14:40:25.915Z,22.25
2019-03-26T14:45:30.399Z,32.14
2019-03-26T14:50:36.429Z,14.71
2019-03-26T14:55:41.593Z,13.57
2019-03-26T15:00:46.711Z,9.00
2019-03-26T15:05:51.878Z,10.29
2019-03-26T15:11:07.588Z,14.67
2019-03-26T15:16:05.416Z,9.33
2019-03-26T15:21:13.938Z,18.12
2019-03-26T15:26:19.833Z,9.00
2019-03-26T15:31:25.659Z,7.83
2019-03-26T15:36:31.339Z,15.29
2019-03-26T15:41:34.764Z,26.75
2019-03-26T15:46:40.883Z,16.71
2019-03-26T15:51:46.083Z,18.29
2019-03-26T15:56:51.366Z,17.29
2019-03-26T16:01:54.830Z,14.67
2019-03-26T16:07:02.502Z,18.14
2019-03-26T16:12:08.902Z,23.38
2019-03-26T16:17:15.539Z,19.43
2019-03-26T16:22:20.627Z,18.00
2019-03-26T16:27:26.979Z,19.25
2019-03-26T16:32:31.079Z,11.67
2019-03-26T16:37:36.636Z,11.33
2019-03-26T16:42:45.462Z,24.87
2019-03-26T16:47:53.970Z,14.00
2019-03-26T16:53:00.642Z,22.75
2019-03-26T16:58:04.489Z,13.00
2019-03-26T17:03:11.955Z,18.12
2019-03-26T17:08:18.127Z,16.67
2019-03-26T17:13:22.642Z,16.50
2019-03-26T17:18:28.309Z,15.50
2019-03-26T17:23:34.258Z,15.57
2019-03-26T17:28:39.565Z,12.50
2019-03-26T17:33:44.641Z,9.00
2019-03-26T17:38:48.043Z,15.75
2019-03-26T17:43:53.070Z,18.86
2019-03-26T17:48:57.194Z,16.00
2019-03-26T17:54:08.666Z,19.36
2019-03-26T17:59:13.374Z,17.43
2019-03-26T18:04:19.838Z,17.33
2019-03-26T18:09:23.980Z,17.00
2019-03-26T18:14:29.302Z,16.00
2019-03-26T18:19:36.756Z,20.40
2019-03-26T18:24:54.512Z,17.83
2019-03-26T18:30:00.410Z,14.00
2019-03-26T18:35:06.411Z,17.14
2019-03-26T18:40:12.591Z,30.86
2019-03-26T18:45:22.042Z,21.12
2019-03-26T18:50:25.859Z,18.50
2019-03-26T18:55:30.795Z,19.71
2019-03-26T19:00:36.412Z,13.29
2019-03-26T19:05:41.658Z,16.29
2019-03-26T19:10:49.894Z,20.50
2019-03-26T19:15:53.769Z,20.60
2019-03-26T19:21:06.188Z,15.08
2019-03-26T19:26:12.086Z,14.63
2019-03-26T19:31:15.643Z,14.00
2019-03-26T19:36:20.417Z,26.00
2019-03-26T19:41:25.347Z,20.00
2019-03-26T19:46:46.593Z,22.12
2019-03-26T19:51:54.624Z,22.33
2019-03-26T19:56:59.994Z,31.14
2019-03-26T20:02:18.222Z,20.91
2019-03-26T20:10:02.097Z,30.64
2019-03-26T20:15:17.591Z,24.06
2019-03-26T20:20:24.635Z,15.56
2019-03-26T20:25:57.978Z,23.35
2019-03-26T20:31:12.140Z,26.17
2019-03-26T20:36:19.982Z,40.75
2019-03-26T20:41:30.572Z,37.64
2019-03-26T20:46:37.989Z,20.44
2019-03-26T20:51:42.053Z,19.00
2019-03-26T20:56:46.505Z,20.33
2019-03-26T21:01:56.312Z,29.08
2019-03-26T21:07:01.882Z,23.80
2019-03-26T21:12:07.118Z,18.29
2019-03-26T21:17:14.731Z,17.82
2019-03-26T21:22:26.088Z,16.80
2019-03-26T21:27:43.569Z,16.26
2019-03-26T21:32:49.953Z,39.33
2019-03-26T21:37:55.759Z,21.00
2019-03-26T21:43:25.332Z,15.92
2019-03-26T21:48:28.959Z,16.00
2019-03-26T21:56:48.209Z,20.71
2019-03-26T22:02:45.118Z,19.00
2019-03-26T22:17:03.156Z,13.50
2019-03-26T22:22:21.246Z,21.50
2019-03-26T22:27:28.142Z,17.67
2019-03-26T22:32:48.916Z,18.60
2019-03-26T22:37:53.453Z,14.20
2019-03-26T22:43:04.115Z,27.56
2019-03-26T22:48:08.185Z,12.17
2019-03-26T22:53:21.771Z,37.46
2019-03-26T23:03:36.131Z,19.00
2019-03-26T23:08:39.315Z,14.50
2019-03-26T23:13:52.516Z,18.67
2019-03-26T23:19:01.754Z,14.18
2019-03-26T23:24:05.291Z,12.20
2019-03-26T23:29:08.796Z,27.00
2019-03-26T23:34:20.812Z,14.64
2019-03-26T23:39:27.089Z,16.29
2019-03-26T23:44:31.240Z,12.50
2019-03-26T23:49:39.596Z,14.71
2019-03-26T23:54:46.433Z,13.00
2019-03-26T23:59:51.222Z,11.00
